createdAt,value
2023-03-20T00:13:49.476Z,91.14
2023-03-20T00:28:52.129Z,93.02
2023-03-20T00:43:58.299Z,92.58
2023-03-20T00:59:02.475Z,96.19
2023-03-20T01:14:04.794Z,99.14
2023-03-20T01:29:21.501Z,96.53
2023-03-20T01:44:30.175Z,100.00
2023-03-20T02:00:05.273Z,98.17
2023-03-20T02:15:08.440Z,96.99
2023-03-20T02:30:19.288Z,100.00
2023-03-20T02:45:29.357Z,98.90
2023-03-20T03:00:36.706Z,100.00
2023-03-20T03:15:42.766Z,99.71
2023-03-20T03:30:45.438Z,100.00
2023-03-20T03:45:56.158Z,99.82
2023-03-20T04:01:00.146Z,97.77
2023-03-20T04:16:02.513Z,100.00
2023-03-20T04:31:04.436Z,100.00
2023-03-20T04:46:07.001Z,100.00
2023-03-20T05:01:09.041Z,100.00
2023-03-20T05:16:10.918Z,100.00
2023-03-20T05:31:12.839Z,100.00
2023-03-20T05:46:14.474Z,100.00
2023-03-20T06:01:18.325Z,99.76
2023-03-20T06:16:20.405Z,100.00
2023-03-20T06:31:22.116Z,97.20
2023-03-20T06:46:23.616Z,96.79
2023-03-20T07:01:26.221Z,90.76
2023-03-20T07:16:28.240Z,87.79
2023-03-20T07:31:31.475Z,86.09
2023-03-20T07:46:33.270Z,83.65
2023-03-20T08:01:35.155Z,81.71
2023-03-20T08:16:36.909Z,77.49
2023-03-20T08:31:40.217Z,75.60
2023-03-20T08:46:43.761Z,74.12
2023-03-20T09:01:50.032Z,72.11
2023-03-20T09:16:52.375Z,70.33
2023-03-20T09:31:54.632Z,69.20
2023-03-20T09:47:16.503Z,67.40
2023-03-20T10:02:34.383Z,65.78
2023-03-20T10:18:00.609Z,65.10
2023-03-20T10:33:25.308Z,63.02
2023-03-20T10:48:33.846Z,61.45
2023-03-20T11:03:39.771Z,62.21
2023-03-20T11:18:42.257Z,58.19
2023-03-20T11:33:46.925Z,57.27
2023-03-20T11:49:03.179Z,53.37
2023-03-20T12:04:09.670Z,49.97
2023-03-20T12:19:19.210Z,46.64
2023-03-20T12:34:47.219Z,48.04
2023-03-20T12:50:07.346Z,46.55
2023-03-20T13:05:24.144Z,44.65
2023-03-20T13:20:30.560Z,40.68
2023-03-20T13:35:56.894Z,38.67
2023-03-20T13:51:42.008Z,39.84
2023-03-20T14:06:52.678Z,38.73
2023-03-20T14:21:56.263Z,37.79
2023-03-20T14:36:59.331Z,37.05
2023-03-20T14:52:31.685Z,39.36
2023-03-20T15:07:39.131Z,41.51
2023-03-20T15:22:58.182Z,51.77
2023-03-20T15:38:06.448Z,53.01
2023-03-20T15:53:11.434Z,51.65
2023-03-20T16:08:27.182Z,52.38
2023-03-20T16:23:46.801Z,52.80
2023-03-20T16:39:02.960Z,52.97
2023-03-20T16:54:05.181Z,49.55
2023-03-20T17:09:18.552Z,47.95
2023-03-20T17:24:20.578Z,47.53
2023-03-20T17:39:22.555Z,47.27
2023-03-20T17:54:24.300Z,50.48
2023-03-20T18:09:26.148Z,50.34
2023-03-20T18:24:27.912Z,50.73
2023-03-20T18:39:29.567Z,54.06
2023-03-20T18:54:31.394Z,57.11
2023-03-20T19:09:33.776Z,57.24
2023-03-20T19:24:35.645Z,60.25
2023-03-20T19:39:37.430Z,60.55
2023-03-20T19:54:50.072Z,61.49
2023-03-20T20:10:01.944Z,62.04
2023-03-20T20:25:05.318Z,63.45
2023-03-20T20:40:08.698Z,62.40
2023-03-20T20:55:22.493Z,62.66
2023-03-20T21:10:25.405Z,61.54
2023-03-20T21:25:39.717Z,62.31
2023-03-20T21:40:43.258Z,65.72
2023-03-20T21:56:37.347Z,67.18
2023-03-20T22:27:18.857Z,73.09
2023-03-20T22:57:12.874Z,70.96
2023-03-20T23:12:14.629Z,74.14
2023-03-20T23:27:19.353Z,72.96
2023-03-20T23:42:30.422Z,76.22
2023-03-20T23:57:32.513Z,77.00
